Selected Arizona METAR Reports


Metar stations are listed by distance from this station - near to far. The 'official' reporting station for the Greater Phoenix area is KPHX - Phoenix/Sky Harbor.

KDVT - Phoenix/Deer Valley, Arizona, USA
Distance from station: NW 4mi, 7km
Updated: Fri 01 Jul 2022 2353 MST
Clear
Clear
 Wind from SE
Wind: SE 10 mph , 17 km/h, Gust: 22 mph , 35 km/h
Temperature: 90°F , 32°C
Dew Point: 57°F , 14°C
Humidity: 33%
Barometer: 29.87 inHg , 1011.5 hPa
Clouds: Clear
Visibility: 10 miles , 16 km
2022/07/02 06:53 KDVT 020653Z AUTO 14009G19KT 10SM CLR 32/14 A2987 RMK AO2 SLP085 T03220139 404060300
KSDL - Scottsdale, Arizona, USA
Distance from station: ESE 6mi, 9km
Updated: Fri 01 Jul 2022 2353 MST
Clear
Clear
 Wind from SE
Wind: SE 6 mph , 9 km/h
Temperature: 90°F , 32°C
Dew Point: 57°F , 14°C
Humidity: 33%
Barometer: 29.88 inHg , 1011.9 hPa
Clouds: Clear
Visibility: 10 miles , 16 km
2022/07/02 06:53 KSDL 020653Z AUTO 13005KT 10SM CLR 32/14 A2988 RMK AO2 SLP087 T03220144 404060294
 
KPHX - Phoenix/Sky Harbor, Arizona, USA
Distance from station: S 15mi, 24km
Updated: Fri 01 Jul 2022 2351 MST
Overcast
Overcast
 Wind from ESE
Wind: ESE 12 mph , 19 km/h
Temperature: 91°F , 33°C
Dew Point: 59°F , 15°C
Humidity: 34%
Barometer: 29.84 inHg , 1010.5 hPa
Clouds: Overcast
Visibility: 10 miles , 16 km
Cloud details: Mostly cloudy 16000 ft
Overcast 20000 ft
2022/07/02 06:51 KPHX 020651Z 11010KT 10SM BKN160 OVC200 33/15 A2984 RMK AO2 SLP083 T03280150 404220311
KGEU - Glendale, Arizona, USA
Distance from station: WSW 19mi, 30km
Updated: Fri 01 Jul 2022 1955 MST
NOT Current
Clear
Clear
 Wind from SSW
Wind: SSW 9 mph , 15 km/h
Temperature: 102°F , 39°C
Dew Point: 48°F , 9°C
Humidity: 16%
Barometer: 29.74 inHg , 1007.1 hPa
Clouds: Clear
Visibility: 10 miles , 16 km
2022/07/02 02:55 KGEU 020255Z 21008KT 10SM SKC 39/09 A2974
 
KFFZ - Mesa/Falcon Field, Arizona, USA
Distance from station: SE 21mi, 33km
Updated: Fri 01 Jul 2022 2354 MST
Clear
Clear
 Wind from SE
Wind: SE 10 mph , 17 km/h
Temperature: 90°F , 32°C
Dew Point: 59°F , 15°C
Humidity: 36%
Barometer: 29.86 inHg , 1011.2 hPa
Clouds: Clear
Visibility: 10 miles , 16 km
2022/07/02 06:54 KFFZ 020654Z AUTO 14009KT 10SM CLR 32/15 A2986 RMK AO2 SLP084 T03220150 404110306 TSNO
KLUF - Luke AFB/Glendale, Arizona, USA
Distance from station: WSW 23mi, 36km
Updated: Fri 01 Jul 2022 2358 MST
Partly cloudy
Partly cloudy
 Wind from ESE
Wind: ESE 10 mph , 17 km/h
Temperature: 93°F , 34°C
Dew Point: 57°F , 14°C
Humidity: 30%
Barometer: 29.83 inHg , 1010.2 hPa
Clouds: Partly cloudy
Visibility: 10 miles , 16 km
Cloud details: Partly cloudy 21000 ft
2022/07/02 06:58 KLUF 020658Z AUTO 12009KT 10SM SCT210 34/14 A2983 RMK AO2 SLP085 T03350140 404150313 $
 
KGYR - Goodyear Municipal, Arizona, USA
Distance from station: SW 26mi, 42km
Updated: Fri 01 Jul 2022 2047 MST
NOT Current
Partly cloudy
Partly cloudy
 Wind from SSW
Wind: SSW 5 mph , 7 km/h
Temperature: 99°F , 37°C
Dew Point: 54°F , 12°C
Humidity: 22%
Barometer: 29.77 inHg , 1008.1 hPa
Clouds: Partly cloudy
Visibility: 10 miles , 16 km
Cloud details: Partly cloudy 12000 ft
Partly cloudy 18000 ft
2022/07/02 03:47 KGYR 020347Z 20004KT 10SM SCT120 SCT180 37/12 A2977 RMK LAST
KIWA - Chandler/Mesa, Arizona, USA
Distance from station: SE 32mi, 51km
Updated: Fri 01 Jul 2022 2350 MST
Clear
Clear
 Wind from SE
Wind: SE 10 mph , 17 km/h
Temperature: 88°F , 31°C
Heat Index: 88°F , 31°C
Dew Point: 61°F , 16°C
Humidity: 40%
Barometer: 29.90 inHg , 1012.5 hPa
Clouds: Clear
Visibility: 10 miles , 16 km
2022/07/02 06:50 KIWA 020650Z 14009KT 10SM CLR 31/16 A2990
 
KBXK - Buckeye, Arizona, USA
Distance from station: WSW 42mi, 68km
Updated: Sat 02 Jul 2022 0015 MST

 Wind from ESE
Wind: ESE 8 mph , 13 km/h, Gust: 14 mph , 22 km/h
Temperature: 91°F , 33°C
Dew Point: 57°F , 14°C
Humidity: 32%
Barometer: 29.84 inHg , 1010.5 hPa
Visibility: 10 miles , 16 km
2022/07/02 07:15 KBXK 020715Z AUTO 11007G12KT 10SM 33/14 A2984 RMK A01
KCGZ - Casa Grande, Arizona, USA
Distance from station: SSE 50mi, 81km
Updated: Fri 01 Jul 2022 2356 MST
Clear
Clear
 Wind from ESE
Wind: ESE 10 mph , 17 km/h
Temperature: 86°F , 30°C
Heat Index: 86°F , 30°C
Dew Point: 61°F , 16°C
Humidity: 43%
Clouds: Clear
Visibility: 10 miles , 16 km
2022/07/02 06:56 KCGZ 020656Z AUTO 11009KT 10SM CLR 30/16 RMK AO2 SLPNO T03000161 404060278 $
 
KPAN - Payson, Arizona, USA
Distance from station: NE 57mi, 91km
Updated: Sat 02 Jul 2022 0015 MST
Overcast
Overcast
 Wind from varies
Wind: varies 3 mph , 6 km/h
Temperature: 68°F , 20°C
Dew Point: 55°F , 13°C
Humidity: 64%
Barometer: 30.17 inHg , 1021.7 hPa
Clouds: Overcast
Visibility: 10 miles , 16 km
Cloud details: Mostly cloudy 7500 ft
Overcast 11000 ft
2022/07/02 07:15 KPAN 020715Z AUTO VRB03KT 10SM BKN075 OVC110 20/13 A3017 RMK AO2 PWINO
KGBN - Gila Bend (aaf), Arizona, USA
Distance from station: SW 68mi, 109km
Updated: Wed 04 Dec 2019 0855 MST
NOT Current
Mostly cloudy
Mostly cloudy
 Wind from calm
Wind: Calm
Temperature: 55°F , 13°C
Dew Point: 54°F , 12°C
Humidity: 94%
Barometer: 30.02 inHg , 1016.6 hPa
Clouds: Mostly cloudy
Visibility: 10 miles , 16 km
Cloud details: Mostly cloudy 10000 ft
Mostly cloudy 14000 ft
2019/12/04 15:55 KGBN 041555Z 00000KT 10SM BKN100 BKN140 13/12 A3002 RMK AO2A SLP162
 
KPRC - Prescott, Arizona, USA
Distance from station: NNW 73mi, 118km
Updated: Fri 01 Jul 2022 2353 MST
Clear
Clear
 Wind from S
Wind: S 6 mph , 9 km/h
Temperature: 72°F , 22°C
Dew Point: 48°F , 9°C
Humidity: 44%
Barometer: 30.13 inHg , 1020.3 hPa
Clouds: Clear
Visibility: 10 miles , 16 km
2022/07/02 06:53 KPRC 020653Z AUTO 18005KT 10SM CLR 22/09 A3013 RMK AO2 SLP113 T02220089 403170172
KSEZ - Sedona, Arizona, USA
Distance from station: N 84mi, 135km
Updated: Sat 02 Jul 2022 0015 MST
Clear
Clear
 Wind from ENE
Wind: ENE 3 mph , 6 km/h
Temperature: 72°F , 22°C
Dew Point: 52°F , 11°C
Humidity: 50%
Barometer: 30.13 inHg , 1020.3 hPa
Clouds: Clear
Visibility: 10 miles , 16 km
2022/07/02 07:15 KSEZ 020715Z AUTO 07003KT 10SM CLR 22/11 A3013 RMK AO2
 
KFLG - Flagstaff, Arizona, USA
Distance from station: N 105mi, 168km
Updated: Fri 01 Jul 2022 2357 MST
Clear
Clear
 Wind from calm
Wind: Calm
Temperature: 52°F , 11°C
Dew Point: 50°F , 10°C
Humidity: 94%
Barometer: 30.28 inHg , 1025.4 hPa
Clouds: Clear
Visibility: 10 miles , 16 km
2022/07/02 06:57 KFLG 020657Z AUTO 00000KT 10SM CLR 11/10 A3028 RMK AO2 SLP155 T01110100 402560094
KRYN - Tucson/Ryan Field, Arizona, USA
Distance from station: SSE 114mi, 184km
Updated: Fri 01 Jul 2022 1645 MST
NOT Current
Nearby thunderstorm, Mostly cloudy
Nearby thunderstorm, Mostly cloudy
 Wind from NE
Wind: NE 12 mph , 19 km/h, Gust: 25 mph , 41 km/h
Temperature: 81°F , 27°C
Heat Index: 82°F , 28°C
Dew Point: 63°F , 17°C
Humidity: 54%
Barometer: 29.97 inHg , 1014.9 hPa
Summary: Nearby Thunderstorm
Clouds: Mostly cloudy
Visibility: 10 miles , 16 km
Cloud details: Mostly cloudy 8000 ft
2022/07/01 23:45 KRYN 012345Z 04010G22KT 10SM VCTS BKN080 27/17 A2997
 
KCMR - Williams Clark, Arizona, USA
Distance from station: N 115mi, 185km
Updated: Sat 02 Jul 2022 0015 MST
Few Clouds
Few Clouds
 Wind from SE
Wind: SE 9 mph , 15 km/h
Temperature: 61°F , 16°C
Dew Point: 48°F , 9°C
Humidity: 63%
Barometer: 30.25 inHg , 1024.4 hPa
Clouds: Few Clouds
Visibility: 10 miles , 16 km
Cloud details: Few Clouds 9500 ft
2022/07/02 07:15 KCMR 020715Z AUTO 13008KT 10SM FEW095 16/09 A3025 RMK AO2
KINW - Winslow, Arizona, USA
Distance from station: NE 121mi, 194km
Updated: Fri 01 Jul 2022 2356 MST
Clear
Clear
 Wind from SW
Wind: SW 6 mph , 9 km/h
Temperature: 73°F , 23°C
Dew Point: 52°F , 11°C
Humidity: 47%
Barometer: 30.10 inHg , 1019.3 hPa
Clouds: Clear
Visibility: 10 miles , 16 km
2022/07/02 06:56 KINW 020656Z AUTO 23005KT 10SM CLR 23/11 A3010 RMK AO2 SLP108 T02280106 403330178 $
 
KTUS - Tucson, Arizona, USA
Distance from station: SSE 121mi, 195km
Updated: Fri 01 Jul 2022 2353 MST
Light rain, Mostly cloudy
Light rain, Mostly cloudy
 Wind from SE
Wind: SE 3 mph , 6 km/h
Temperature: 79°F , 26°C
Dew Point: 64°F , 18°C
Humidity: 61%
Barometer: 30.01 inHg , 1016.3 hPa
Summary: Light rain
Clouds: Mostly cloudy
Visibility: 10 miles , 16 km
Cloud details: Mostly cloudy 11000 ft
2022/07/02 06:53 KTUS 020653Z 13003KT 10SM -RA BKN110 26/18 A3001 RMK AO2 RAB15 SLP111 P0000 T02560178 403610239
KDMA - Davis AFB/Tucson, Arizona, USA
Distance from station: SE 122mi, 196km
Updated: Fri 01 Jul 2022 2358 MST
Light drizzle, Mostly cloudy
Light drizzle, Mostly cloudy
 Wind from SSE
Wind: SSE 3 mph , 6 km/h
Temperature: 75°F , 24°C
Dew Point: 66°F , 19°C
Humidity: 74%
Barometer: 29.98 inHg , 1015.2 hPa
Summary: Light Drizzle
Clouds: Mostly cloudy
Visibility: 10 miles , 16 km
Cloud details: Few Clouds 8000 ft
Mostly cloudy 11000 ft
2022/07/02 06:58 KDMA 020658Z AUTO 16003KT 10SM -DZ FEW080 BKN110 24/19 A2998 RMK AO2 DZB26E38DZB43 SLP107 P0000 T02400191 403470224 $
 
KSOW - Show Low Municipal, Arizona, USA
Distance from station: ENE 123mi, 198km
Updated: Sat 02 Jul 2022 0015 MST
Mostly cloudy
Mostly cloudy
 Wind from calm
Wind: Calm
Temperature: 63°F , 17°C
Dew Point: 52°F , 11°C
Humidity: 68%
Barometer: 30.24 inHg , 1024 hPa
Clouds: Mostly cloudy
Visibility: 10 miles , 16 km
Cloud details: Mostly cloudy 8500 ft
Mostly cloudy 11000 ft
2022/07/02 07:15 KSOW 020715Z AUTO 00000KT 10SM BKN085 BKN110 17/11 A3024 RMK AO2
KSAD - Safford, Arizona, USA
Distance from station: ESE 148mi, 238km
Updated: Thu 30 Jun 2022 1551 MST
NOT Current
Clear
Clear
 Wind from WNW
Wind: WNW 14 mph , 22 km/h
Temperature: 91°F , 33°C
Dew Point: 57°F , 14°C
Humidity: 32%
Barometer: 29.96 inHg , 1014.6 hPa
Clouds: Clear
Visibility: 10 miles , 16 km
2022/06/30 22:51 KSAD 302251Z AUTO 29012KT 10SM CLR 33/14 A2996 RMK AO2 LTG DSNT N AND S SLP087 T03330139